Time;durP1;ratioP1;P1;durP2;ratioP2;P2;SDS_P1;SDS_P2;PMS_P1;PMS_P2;Temp;Humidity;BMP_temperature;BMP_pressure;BME280_temperature;BME280_humidity;BME280_pressure;Samples;Min_cycle;Max_cycle;Signal;HPM_P1;HPM_P2
2022/07/24 00:00:56;;;;;;;5.47;5.17;;;;;;;16.21;100.00;100693.08;1660325;84;21016;-42
2022/07/24 00:03:23;;;;;;;6.60;5.67;;;;;;;16.23;100.00;100691.26;1670257;85;20961;-42
2022/07/24 00:05:50;;;;;;;14.50;5.45;;;;;;;16.25;100.00;100692.05;1666653;85;21481;-42
2022/07/24 00:08:17;;;;;;;7.12;5.62;;;;;;;16.29;100.00;100700.63;1668929;84;20963;-42
2022/07/24 00:10:44;;;;;;;11.55;6.22;;;;;;;16.33;100.00;100704.81;1663884;84;21553;-43
2022/07/24 00:13:11;;;;;;;10.30;6.30;;;;;;;16.35;100.00;100705.17;1662638;85;21089;-42
2022/07/24 00:15:39;;;;;;;13.32;6.50;;;;;;;16.37;100.00;100709.02;1665629;85;21558;-43
2022/07/24 00:18:06;;;;;;;8.13;7.00;;;;;;;16.35;100.00;100714.31;1673301;85;21176;-42
2022/07/24 00:20:33;;;;;;;10.23;7.08;;;;;;;16.37;100.00;100705.95;1673900;84;20925;-42
2022/07/24 00:23:02;;;;;;;7.40;6.53;;;;;;;16.42;100.00;100710.15;1664033;85;20944;-42
2022/07/24 00:25:30;;;;;;;9.53;6.75;;;;;;;16.43;100.00;100710.10;1668868;85;21094;-42
2022/07/24 00:27:57;;;;;;;10.45;6.50;;;;;;;16.44;100.00;100708.33;1665661;85;21059;-42
2022/07/24 00:30:24;;;;;;;6.62;5.92;;;;;;;16.42;100.00;100707.09;1669145;84;21236;-43
2022/07/24 00:32:51;;;;;;;8.80;7.08;;;;;;;16.41;100.00;100702.75;1658824;85;20976;-42
2022/07/24 00:35:18;;;;;;;7.70;6.75;;;;;;;16.41;100.00;100698.00;1664150;85;20992;-43
2022/07/24 00:37:46;;;;;;;7.00;6.40;;;;;;;16.38;100.00;100704.18;1673765;85;21727;-42
2022/07/24 00:40:15;;;;;;;7.50;6.80;;;;;;;16.34;100.00;100704.77;1669887;84;20972;-42
2022/07/24 00:42:43;;;;;;;10.10;7.28;;;;;;;16.34;100.00;100705.21;1661452;85;21778;-43
2022/07/24 00:45:10;;;;;;;7.60;6.58;;;;;;;16.31;100.00;100709.25;1670870;84;21108;-43
2022/07/24 00:47:37;;;;;;;13.03;6.58;;;;;;;16.28;100.00;100713.30;1662955;85;21036;-43
2022/07/24 00:50:06;;;;;;;12.65;6.40;;;;;;;16.26;100.00;100712.03;1644883;85;21615;-42
2022/07/24 00:52:33;;;;;;;7.42;6.72;;;;;;;16.22;100.00;100705.23;1660317;85;21534;-43
2022/07/24 00:55:00;;;;;;;10.63;7.15;;;;;;;16.17;100.00;100712.39;1655226;85;21407;-42
2022/07/24 00:57:27;;;;;;;9.75;6.33;;;;;;;16.11;100.00;100710.02;1656151;85;21064;-42
2022/07/24 00:59:54;;;;;;;17.37;7.22;;;;;;;16.04;100.00;100712.00;1660808;84;20976;-43
2022/07/24 01:02:21;;;;;;;8.33;7.28;;;;;;;15.99;100.00;100713.47;1658582;85;21604;-43
2022/07/24 01:04:49;;;;;;;11.10;6.50;;;;;;;15.91;100.00;100713.78;1661950;85;20936;-43
2022/07/24 01:07:16;;;;;;;7.37;6.75;;;;;;;15.86;100.00;100721.34;1650299;85;21252;-43
2022/07/24 01:09:43;;;;;;;7.50;6.80;;;;;;;15.77;100.00;100717.30;1665574;84;21573;-42
2022/07/24 01:12:10;;;;;;;10.63;6.97;;;;;;;15.70;100.00;100723.18;1666478;85;21029;-43
2022/07/24 01:14:39;;;;;;;11.48;6.75;;;;;;;15.64;100.00;100724.24;1667089;85;20996;-42
2022/07/24 01:17:06;;;;;;;9.30;7.12;;;;;;;15.57;100.00;100721.46;1659523;85;21095;-42
2022/07/24 01:19:33;;;;;;;9.05;7.08;;;;;;;15.51;100.00;100725.13;1635954;87;21262;-43
2022/07/24 01:22:00;;;;;;;10.05;7.30;;;;;;;15.46;100.00;100726.21;1666810;84;21012;-43
2022/07/24 01:24:27;;;;;;;7.83;6.97;;;;;;;15.43;100.00;100726.33;1662616;85;21036;-42
2022/07/24 01:26:54;;;;;;;12.47;7.08;;;;;;;15.35;100.00;100727.88;1667638;84;21111;-42
2022/07/24 01:29:21;;;;;;;10.30;6.97;;;;;;;15.28;100.00;100727.23;1669995;84;20947;-42
2022/07/24 01:31:49;;;;;;;12.13;7.15;;;;;;;15.22;100.00;100728.75;1641345;85;21260;-43
2022/07/24 01:34:16;;;;;;;9.15;7.37;;;;;;;15.15;100.00;100733.31;1635207;87;20976;-42
2022/07/24 01:36:43;;;;;;;10.70;7.08;;;;;;;15.08;100.00;100731.81;1661207;85;21241;-42
2022/07/24 01:39:10;;;;;;;9.65;8.70;;;;;;;15.04;100.00;100732.83;1629772;87;21026;-43
2022/07/24 01:41:38;;;;;;;13.15;9.30;;;;;;;15.02;100.00;100723.73;1668879;85;21006;-42
2022/07/24 01:44:05;;;;;;;14.35;10.88;;;;;;;15.07;100.00;100720.99;1668951;85;21282;-43
2022/07/24 01:46:32;;;;;;;15.60;10.08;;;;;;;15.13;100.00;100716.00;1646455;85;21509;-42
2022/07/24 01:49:00;;;;;;;16.67;10.82;;;;;;;15.16;100.00;100714.16;1654869;85;21553;-42
2022/07/24 01:51:27;;;;;;;11.57;10.00;;;;;;;15.16;100.00;100715.46;1663596;84;20965;-42
2022/07/24 01:53:54;;;;;;;11.45;9.10;;;;;;;15.15;100.00;100709.84;1703305;82;20972;-42
2022/07/24 01:56:21;;;;;;;15.23;9.58;;;;;;;15.09;100.00;100703.54;1702176;82;21406;-42
2022/07/24 01:58:48;;;;;;;14.30;10.13;;;;;;;15.05;100.00;100705.86;1698323;83;21003;-43
2022/07/24 02:01:16;;;;;;;21.65;11.20;;;;;;;15.01;100.00;100706.83;1711865;82;20945;-43
2022/07/24 02:03:43;;;;;;;12.05;10.75;;;;;;;15.00;100.00;100702.09;1703010;83;20996;-42
2022/07/24 02:06:10;;;;;;;13.58;9.95;;;;;;;15.02;100.00;100701.58;1711851;82;21119;-42
2022/07/24 02:08:37;;;;;;;12.35;9.93;;;;;;;15.03;100.00;100702.42;1709975;82;21147;-42
2022/07/24 02:11:05;;;;;;;11.83;9.53;;;;;;;15.00;100.00;100699.91;1713402;82;21046;-43
2022/07/24 02:13:32;;;;;;;14.47;10.85;;;;;;;14.98;100.00;100707.80;1669093;85;22471;-42
2022/07/24 02:15:59;;;;;;;10.85;9.63;;;;;;;14.96;100.00;100713.95;1671035;84;21027;-42
2022/07/24 02:18:26;;;;;;;16.35;11.15;;;;;;;14.94;100.00;100700.52;1661727;85;21063;-43
2022/07/24 02:20:54;;;;;;;16.07;11.03;;;;;;;14.92;100.00;100698.42;1702035;83;21069;-43
2022/07/24 02:23:21;;;;;;;14.90;11.60;;;;;;;14.96;100.00;100694.41;1694949;83;21117;-42
2022/07/24 02:25:49;;;;;;;12.35;9.60;;;;;;;15.00;100.00;100694.27;1697191;83;20975;-43
2022/07/24 02:28:16;;;;;;;9.43;8.53;;;;;;;15.01;100.00;100693.80;1696030;83;21027;-42
2022/07/24 02:30:44;;;;;;;10.50;9.18;;;;;;;14.97;100.00;100695.67;1696164;82;21028;-42
2022/07/24 02:33:10;;;;;;;15.32;10.03;;;;;;;14.91;100.00;100695.41;1695591;83;21151;-42
2022/07/24 02:35:39;;;;;;;14.05;10.00;;;;;;;14.89;100.00;100692.02;1697839;82;21621;-42
2022/07/24 02:38:08;;;;;;;11.80;10.60;;;;;;;14.89;100.00;100695.92;1696765;83;21043;-43
2022/07/24 02:40:36;;;;;;;24.57;10.50;;;;;;;14.88;100.00;100694.22;1698205;83;21008;-42
2022/07/24 02:43:03;;;;;;;14.40;10.23;;;;;;;14.91;100.00;100697.19;1696288;82;20993;-42
2022/07/24 02:45:30;;;;;;;11.28;9.03;;;;;;;14.96;100.00;100699.62;1697449;83;22281;-42
2022/07/24 02:47:57;;;;;;;9.78;8.68;;;;;;;14.97;100.00;100710.02;1697970;83;21020;-43
2022/07/24 02:50:27;;;;;;;10.82;8.60;;;;;;;14.97;100.00;100707.41;1698500;83;21007;-42
2022/07/24 02:52:54;;;;;;;9.58;8.53;;;;;;;14.97;100.00;100693.50;1711589;82;20983;-42
2022/07/24 02:55:22;;;;;;;11.20;8.08;;;;;;;14.97;100.00;100690.46;1676903;84;21036;-43
2022/07/24 02:57:50;;;;;;;11.90;8.53;;;;;;;14.99;100.00;100682.58;1654005;85;21169;-42
2022/07/24 03:00:17;;;;;;;9.55;8.65;;;;;;;15.02;100.00;100679.42;1649676;85;21047;-42
2022/07/24 03:02:44;;;;;;;13.18;8.75;;;;;;;15.07;100.00;100677.51;1618095;85;21056;-43
2022/07/24 03:05:11;;;;;;;12.07;8.65;;;;;;;15.12;100.00;100677.36;1650072;85;20968;-42
2022/07/24 03:07:39;;;;;;;10.20;9.13;;;;;;;15.15;100.00;100672.05;1650791;85;21008;-42
2022/07/24 03:10:09;;;;;;;12.50;9.48;;;;;;;15.26;100.00;100679.94;1650532;85;21139;-43
2022/07/24 03:12:35;;;;;;;14.83;10.70;;;;;;;15.38;100.00;100673.84;1649934;85;21672;-42
2022/07/24 03:15:03;;;;;;;16.02;12.00;;;;;;;15.50;100.00;100664.73;1653908;85;21036;-43
2022/07/24 03:17:30;;;;;;;15.23;11.85;;;;;;;15.65;100.00;100664.63;1651371;85;21043;-43
2022/07/24 03:19:57;;;;;;;14.60;12.88;;;;;;;15.80;100.00;100667.16;1660228;85;21028;-43
2022/07/24 03:22:25;;;;;;;17.32;12.65;;;;;;;15.95;100.00;100666.20;1626753;85;21187;-43
2022/07/24 03:24:52;;;;;;;16.82;12.60;;;;;;;16.08;100.00;100663.54;1652573;85;21048;-43
2022/07/24 03:27:21;;;;;;;14.05;12.50;;;;;;;16.26;100.00;100669.41;1659143;85;21423;-43
2022/07/24 03:29:48;;;;;;;13.72;12.33;;;;;;;16.41;100.00;100664.04;1638668;85;21063;-42
2022/07/24 03:32:15;;;;;;;19.70;12.53;;;;;;;16.54;100.00;100668.32;1666932;83;21515;-42
2022/07/24 03:34:42;;;;;;;16.57;11.85;;;;;;;16.64;100.00;100669.20;1664424;85;21383;-43
2022/07/24 03:37:10;;;;;;;15.38;11.10;;;;;;;16.74;100.00;100667.06;1666596;84;21049;-42
2022/07/24 03:39:36;;;;;;;16.20;11.03;;;;;;;16.85;100.00;100672.30;1669804;85;20961;-43
2022/07/24 03:42:04;;;;;;;13.68;10.00;;;;;;;16.96;100.00;100677.94;1665647;85;21075;-43
2022/07/24 03:44:31;;;;;;;10.68;9.55;;;;;;;17.05;100.00;100672.78;1661009;85;21035;-43
2022/07/24 03:46:58;;;;;;;13.38;10.00;;;;;;;17.15;100.00;100678.04;1662771;85;21318;-43
2022/07/24 03:49:25;;;;;;;15.05;9.70;;;;;;;17.25;100.00;100682.42;1657038;85;20968;-43
2022/07/24 03:51:52;;;;;;;13.00;8.83;;;;;;;17.38;100.00;100678.82;1648374;85;21588;-43
2022/07/24 03:54:19;;;;;;;9.90;8.53;;;;;;;17.51;100.00;100681.75;1673579;85;20961;-43
2022/07/24 03:56:46;;;;;;;13.00;7.12;;;;;;;17.63;100.00;100682.98;1664619;84;20997;-43
2022/07/24 03:59:13;;;;;;;10.90;5.90;;;;;;;17.78;100.00;100677.03;1667914;85;21309;-43
2022/07/24 04:01:40;;;;;;;11.90;5.50;;;;;;;17.97;100.00;100674.89;1707893;83;21046;-42
2022/07/24 04:04:08;;;;;;;6.60;5.08;;;;;;;18.27;100.00;100685.37;1692566;83;21003;-43
2022/07/24 04:06:36;;;;;;;8.90;4.70;;;;;;;18.63;100.00;100689.75;1708192;83;21565;-43
2022/07/24 04:09:04;;;;;;;9.40;3.77;;;;;;;18.98;100.00;100688.94;1703988;83;21006;-43
2022/07/24 04:11:31;;;;;;;11.48;4.40;;;;;;;19.24;100.00;100687.19;1705248;82;21264;-43
2022/07/24 04:13:59;;;;;;;10.55;3.50;;;;;;;19.51;100.00;100693.73;1708718;83;21525;-43
2022/07/24 04:16:26;;;;;;;5.60;3.75;;;;;;;19.82;100.00;100704.74;1670456;85;20958;-43
2022/07/24 04:18:52;;;;;;;7.55;3.65;;;;;;;20.13;100.00;100694.87;1706889;82;20966;-43
2022/07/24 04:21:19;;;;;;;6.58;3.42;;;;;;;20.43;100.00;100696.73;1705138;83;20996;-43
2022/07/24 04:23:47;;;;;;;5.87;3.30;;;;;;;20.72;100.00;100691.14;1676084;85;21651;-43
2022/07/24 04:26:14;;;;;;;4.33;3.02;;;;;;;20.99;100.00;100695.76;1688911;83;21043;-43
2022/07/24 04:28:41;;;;;;;5.87;3.05;;;;;;;21.25;100.00;100700.78;1710417;82;20991;-43
2022/07/24 04:31:08;;;;;;;4.83;3.25;;;;;;;21.45;100.00;100703.14;1712640;82;21321;-43
2022/07/24 04:33:35;;;;;;;9.53;2.90;;;;;;;21.58;100.00;100702.79;1672861;85;21000;-43
2022/07/24 04:36:04;;;;;;;6.72;2.58;;;;;;;21.75;100.00;100707.05;1708325;83;21247;-43
2022/07/24 04:38:33;;;;;;;6.35;2.83;;;;;;;21.92;98.99;100708.63;1711145;82;20983;-43
2022/07/24 04:41:01;;;;;;;9.63;3.00;;;;;;;22.05;96.26;100706.07;1707511;83;21007;-43
2022/07/24 04:43:28;;;;;;;8.93;2.87;;;;;;;22.18;95.96;100705.31;1708260;82;21410;-44
2022/07/24 04:45:55;;;;;;;11.45;3.12;;;;;;;22.36;94.47;100704.14;1671022;85;20975;-43
2022/07/24 04:48:22;;;;;;;5.35;2.72;;;;;;;22.61;93.76;100710.95;1714209;82;21101;-43
2022/07/24 04:50:49;;;;;;;3.70;2.52;;;;;;;22.90;91.99;100701.13;1676555;85;20947;-44
2022/07/24 04:53:15;;;;;;;5.55;2.45;;;;;;;23.20;89.77;100702.64;1703074;83;21007;-43
2022/07/24 04:55:43;;;;;;;7.72;2.62;;;;;;;23.21;85.67;100700.37;1699734;82;21027;-43
2022/07/24 04:58:10;;;;;;;6.22;2.30;;;;;;;23.25;85.00;100697.09;1707620;82;20969;-43
2022/07/24 05:00:37;;;;;;;4.85;2.30;;;;;;;23.37;85.43;100691.44;1699921;83;21254;-43
2022/07/24 05:03:04;;;;;;;9.13;2.80;;;;;;;23.56;83.23;100692.78;1706553;82;20992;-43
2022/07/24 05:05:31;;;;;;;4.33;2.47;;;;;;;23.69;81.98;100694.95;1703427;82;20992;-43
2022/07/24 05:08:41;;;;;;;2.40;2.30;;;;;;;23.96;82.32;100688.66;1801494;78;22583;-43
2022/07/24 05:11:08;;;;;;;3.40;2.40;;;;;;;24.09;81.82;100696.09;1756324;80;20938;-43
2022/07/24 05:13:37;;;;;;;7.95;3.05;;;;;;;24.30;80.87;100690.70;1756545;81;21219;-43
2022/07/24 05:16:05;;;;;;;6.35;2.75;;;;;;;24.50;79.92;100693.19;1756505;81;20948;-43
2022/07/24 05:18:33;;;;;;;10.72;2.75;;;;;;;24.59;78.61;100689.85;1766104;80;20945;-43
2022/07/24 05:21:00;;;;;;;3.42;2.58;;;;;;;24.56;78.53;100682.15;1752120;81;21267;-44
2022/07/24 05:23:28;;;;;;;5.33;2.30;;;;;;;24.50;77.61;100685.26;1757127;81;20892;-43
2022/07/24 05:25:54;;;;;;;6.00;2.25;;;;;;;24.46;79.59;100676.69;1756191;81;21340;-43
2022/07/24 05:28:21;;;;;;;7.87;2.60;;;;;;;24.59;79.34;100683.23;1754439;80;21042;-43
2022/07/24 05:30:48;;;;;;;4.60;2.70;;;;;;;24.79;78.73;100676.97;1756561;81;21032;-43
2022/07/24 05:33:15;;;;;;;3.02;2.37;;;;;;;24.95;78.60;100676.66;1757131;81;21066;-43
2022/07/24 05:35:42;;;;;;;3.47;2.20;;;;;;;25.06;76.82;100675.84;1757049;81;20902;-43
2022/07/24 05:38:09;;;;;;;3.37;2.72;;;;;;;24.99;76.56;100678.10;1757073;81;21308;-44
2022/07/24 05:40:36;;;;;;;2.98;2.67;;;;;;;25.02;77.36;100684.98;1756903;81;20997;-43
2022/07/24 05:43:03;;;;;;;7.65;2.60;;;;;;;25.07;76.16;100683.67;1756250;81;21038;-43
2022/07/24 05:45:32;;;;;;;9.98;2.87;;;;;;;25.05;76.61;100685.59;1756736;81;21512;-43
2022/07/24 05:47:59;;;;;;;7.22;2.75;;;;;;;25.14;77.34;100686.70;1759977;80;21018;-44
2022/07/24 05:50:26;;;;;;;4.55;2.47;;;;;;;25.24;75.92;100688.14;1756998;81;21216;-43
2022/07/24 05:52:53;;;;;;;3.00;2.70;;;;;;;25.32;75.49;100687.55;1756621;81;20972;-43
2022/07/24 05:55:20;;;;;;;8.93;2.70;;;;;;;25.36;76.00;100684.55;1753035;81;20991;-43
2022/07/24 05:57:47;;;;;;;15.85;3.10;;;;;;;25.42;76.44;100677.94;1722538;81;20999;-44
2022/07/24 06:00:18;;;;;;;13.78;2.95;;;;;;;25.56;74.97;100674.70;1761529;80;20991;-44
2022/07/24 06:02:46;;;;;;;9.50;2.42;;;;;;;25.58;74.99;100681.58;1697568;83;21138;-44
2022/07/24 06:05:14;;;;;;;7.47;3.02;;;;;;;25.57;74.42;100681.23;1662501;85;21645;-44
2022/07/24 06:07:42;;;;;;;12.35;2.95;;;;;;;25.60;75.43;100682.77;1667992;85;21008;-42
2022/07/24 06:10:10;;;;;;;10.48;2.83;;;;;;;25.67;75.00;100673.39;1648241;86;21634;-43
2022/07/24 06:12:37;;;;;;;3.90;3.00;;;;;;;25.74;74.27;100675.91;1652110;85;21621;-43
2022/07/24 06:15:07;;;;;;;8.08;3.20;;;;;;;25.78;73.49;100674.70;1696791;83;20959;-44
2022/07/24 06:17:35;;;;;;;5.95;2.92;;;;;;;25.87;73.51;100669.61;1706635;82;20996;-44
2022/07/24 06:20:06;;;;;;;3.30;3.00;;;;;;;25.99;72.62;100662.02;1706144;82;20991;-44
2022/07/24 06:22:34;;;;;;;6.80;2.80;;;;;;;26.04;72.36;100659.83;1700040;83;21657;-44
2022/07/24 06:25:01;;;;;;;7.78;3.02;;;;;;;26.03;70.67;100659.97;1699221;82;20964;-44
2022/07/24 06:27:29;;;;;;;3.72;2.60;;;;;;;26.10;72.02;100655.84;1702390;82;20968;-44
2022/07/24 06:29:57;;;;;;;6.17;2.70;;;;;;;26.25;71.45;100657.75;1701290;82;21039;-43
2022/07/24 06:32:24;;;;;;;7.58;2.85;;;;;;;26.36;71.43;100659.03;1710816;82;20988;-43
2022/07/24 06:34:50;;;;;;;7.30;3.08;;;;;;;26.45;70.72;100658.76;1708053;82;20980;-43
2022/07/24 06:37:18;;;;;;;9.80;2.70;;;;;;;26.50;69.78;100666.34;1703993;82;20976;-43
2022/07/24 06:39:45;;;;;;;7.17;3.15;;;;;;;26.61;69.72;100658.31;1707573;82;21234;-44
2022/07/24 06:42:12;;;;;;;6.47;2.22;;;;;;;26.78;69.21;100664.89;1664925;85;20951;-43
2022/07/24 06:44:40;;;;;;;9.23;2.58;;;;;;;26.90;69.49;100665.67;1700003;82;20983;-43
2022/07/24 06:47:07;;;;;;;3.47;2.25;;;;;;;27.04;68.48;100655.23;1704098;82;20964;-43
2022/07/24 06:49:34;;;;;;;5.85;2.80;;;;;;;27.14;67.93;100647.29;1721100;82;20971;-43
2022/07/24 06:52:02;;;;;;;26.90;3.22;;;;;;;27.33;68.05;100645.70;1703766;82;21012;-43
2022/07/24 06:54:29;;;;;;;8.70;2.80;;;;;;;27.58;66.97;100650.23;1703846;82;21227;-44
2022/07/24 06:56:56;;;;;;;6.47;3.15;;;;;;;27.60;64.07;100654.45;1703703;82;21004;-43
2022/07/24 06:59:24;;;;;;;3.02;2.70;;;;;;;27.53;66.18;100658.13;1702380;82;21000;-44
2022/07/24 07:01:52;;;;;;;8.03;2.92;;;;;;;27.48;66.84;100653.67;1705150;82;20948;-43
2022/07/24 07:04:21;;;;;;;7.03;2.83;;;;;;;27.53;65.98;100650.63;1668366;85;20951;-44
2022/07/24 07:06:49;;;;;;;12.82;2.98;;;;;;;27.55;66.66;100648.70;1658975;85;20983;-44
2022/07/24 07:09:18;;;;;;;6.85;3.58;;;;;;;27.54;65.91;100644.37;1707705;83;20971;-43
2022/07/24 07:11:45;;;;;;;28.25;3.80;;;;;;;27.66;67.07;100646.41;1719977;81;21536;-44
2022/07/24 07:14:12;;;;;;;7.92;3.85;;;;;;;27.72;66.18;100644.55;1708619;82;20908;-44
2022/07/24 07:16:39;;;;;;;6.03;3.42;;;;;;;27.66;64.73;100644.59;1677160;83;21278;-45
2022/07/24 07:19:07;;;;;;;7.35;3.52;;;;;;;27.67;63.74;100641.47;1675256;84;21003;-45
2022/07/24 07:21:37;;;;;;;11.03;3.35;;;;;;;27.76;63.37;100647.29;1656821;84;21578;-44
2022/07/24 07:24:07;;;;;;;5.95;2.83;;;;;;;27.87;61.85;100638.83;1666027;85;21502;-45
2022/07/24 07:26:35;;;;;;;5.03;2.62;;;;;;;27.94;62.16;100642.14;1623023;85;21727;-44
2022/07/24 07:29:02;;;;;;;11.75;2.45;;;;;;;27.94;61.47;100642.64;1664314;85;21870;-45
2022/07/24 07:31:29;;;;;;;5.20;2.72;;;;;;;27.93;61.42;100634.31;1661052;85;21036;-43
2022/07/24 07:33:57;;;;;;;5.78;2.50;;;;;;;28.07;62.34;100637.89;1669113;84;21039;-44
2022/07/24 07:36:25;;;;;;;5.05;2.47;;;;;;;28.14;60.53;100635.52;1662434;85;20917;-44
2022/07/24 07:38:52;;;;;;;6.70;2.35;;;;;;;28.33;61.61;100629.89;1664526;85;21040;-43
2022/07/24 07:41:19;;;;;;;3.62;2.37;;;;;;;28.45;59.33;100635.91;1668355;85;21240;-43
2022/07/24 07:43:52;;;;;;;4.22;2.30;;;;;;;28.38;58.68;100640.95;1652639;85;21071;-44
2022/07/24 07:46:15;;;;;;;5.35;2.30;;;;;;;28.32;56.07;100637.02;1666195;85;21738;-44
2022/07/24 07:48:42;;;;;;;3.92;2.25;;;;;;;28.39;57.13;100627.48;1672317;85;21551;-44
2022/07/24 07:51:11;;;;;;;7.15;2.17;;;;;;;28.70;57.33;100632.31;1660058;85;21019;-43
2022/07/24 07:53:38;;;;;;;7.75;2.47;;;;;;;28.79;55.67;100628.30;1642714;85;21232;-43
2022/07/24 07:56:06;;;;;;;5.92;2.00;;;;;;;28.92;54.26;100628.50;1664853;83;20921;-43
2022/07/24 07:58:34;;;;;;;6.42;1.92;;;;;;;29.02;57.53;100637.28;1664181;85;21519;-43
2022/07/24 08:01:02;;;;;;;7.37;2.00;;;;;;;29.16;55.12;100636.48;1667106;85;21003;-44
2022/07/24 08:03:29;;;;;;;6.95;2.30;;;;;;;29.28;56.14;100633.14;1671891;84;21546;-44
2022/07/24 08:05:56;;;;;;;2.87;2.10;;;;;;;29.44;53.23;100632.06;1659348;85;21315;-44
2022/07/24 08:08:24;;;;;;;5.42;2.30;;;;;;;29.49;52.88;100624.45;1662764;85;21135;-44
2022/07/24 08:10:52;;;;;;;8.90;2.60;;;;;;;29.60;55.32;100626.56;1667683;85;21002;-44
2022/07/24 08:13:19;;;;;;;3.42;2.27;;;;;;;29.72;51.77;100631.19;1647571;85;20969;-44
2022/07/24 08:15:47;;;;;;;6.75;1.90;;;;;;;30.00;50.64;100632.48;1668880;84;20983;-44
2022/07/24 08:18:14;;;;;;;9.48;2.45;;;;;;;30.19;49.71;100630.17;1709009;82;21305;-44
2022/07/24 08:20:46;;;;;;;8.20;2.35;;;;;;;30.17;50.32;100628.16;1709366;82;20952;-44
2022/07/24 08:23:11;;;;;;;3.17;2.27;;;;;;;30.36;49.65;100633.34;1706923;84;21019;-44
2022/07/24 08:25:38;;;;;;;3.42;2.45;;;;;;;30.53;49.51;100630.81;1704494;83;20956;-44
2022/07/24 08:28:05;;;;;;;5.97;2.00;;;;;;;30.57;48.45;100625.50;1706638;83;20984;-44
2022/07/24 08:30:33;;;;;;;3.58;1.82;;;;;;;30.57;47.60;100625.98;1707058;84;22112;-44
2022/07/24 08:33:00;;;;;;;7.53;2.20;;;;;;;30.38;47.14;100625.20;1708188;82;21482;-43
2022/07/24 08:35:28;;;;;;;1.95;1.67;;;;;;;30.08;46.99;100629.43;1708042;84;21046;-43
2022/07/24 08:37:55;;;;;;;9.93;2.05;;;;;;;30.15;46.70;100619.47;1705426;83;21022;-44
2022/07/24 08:40:23;;;;;;;6.83;2.50;;;;;;;30.46;46.18;100631.10;1704961;83;21042;-44
2022/07/24 08:42:50;;;;;;;8.35;2.25;;;;;;;30.64;44.98;100624.42;1708822;82;21281;-44
2022/07/24 08:45:17;;;;;;;8.23;2.10;;;;;;;30.64;45.87;100618.56;1703951;82;21032;-45
2022/07/24 08:47:44;;;;;;;4.53;1.92;;;;;;;30.66;47.80;100625.92;1707687;84;20909;-44
2022/07/24 08:50:11;;;;;;;2.85;1.70;;;;;;;30.67;46.08;100626.77;1706638;82;21010;-45
2022/07/24 08:52:38;;;;;;;5.30;2.02;;;;;;;30.54;46.67;100630.64;1707298;82;20955;-45
2022/07/24 08:55:07;;;;;;;2.22;2.00;;;;;;;30.45;46.38;100628.09;1706530;83;21097;-45
2022/07/24 08:57:34;;;;;;;10.18;2.10;;;;;;;30.51;47.82;100630.13;1708258;82;21007;-44
2022/07/24 09:00:04;;;;;;;8.38;2.17;;;;;;;30.47;47.41;100629.59;1701869;83;20968;-44
2022/07/24 09:02:33;;;;;;;3.65;1.95;;;;;;;30.55;49.16;100622.15;1707084;83;21517;-45
2022/07/24 09:05:01;;;;;;;2.33;2.17;;;;;;;30.47;48.41;100624.77;1706434;82;21011;-43
2022/07/24 09:07:29;;;;;;;5.03;2.20;;;;;;;30.20;49.04;100620.70;1707172;83;21485;-43
2022/07/24 09:10:09;;;;;;;6.05;2.20;;;;;;;29.97;51.44;100612.30;1705702;83;21008;-42
2022/07/24 09:12:39;;;;;;;4.55;2.25;;;;;;;29.96;53.25;100603.95;1705698;83;20991;-43
2022/07/24 09:15:16;;;;;;;2.87;2.67;;;;;;;30.10;52.17;100606.61;1709691;83;21031;-43
2022/07/24 09:17:56;;;;;;;;;;;;;;;30.20;53.12;100604.69;1713866;82;20955;-43
2022/07/24 09:20:27;;;;;;;13.45;2.70;;;;;;;30.16;51.47;100599.80;1710813;82;21258;-43
2022/07/24 09:22:59;;;;;;;8.98;2.50;;;;;;;30.18;53.90;100598.67;1709584;81;21589;-43
2022/07/24 09:25:28;;;;;;;2.45;2.20;;;;;;;30.33;51.78;100605.63;1707766;83;21050;-44
2022/07/24 09:27:59;;;;;;;5.15;2.30;;;;;;;30.35;51.37;100598.81;1707643;83;21043;-43
2022/07/24 09:30:35;;;;;;;3.72;2.20;;;;;;;30.41;49.33;100599.52;1707496;83;21584;-43
2022/07/24 09:33:13;;;;;;;8.80;2.30;;;;;;;30.64;48.73;100601.20;1708277;83;21544;-43
2022/07/24 09:35:47;;;;;;;3.90;2.00;;;;;;;30.82;50.65;100597.66;1707169;83;20947;-44
2022/07/24 09:38:18;;;;;;;11.30;2.22;;;;;;;31.12;49.67;100595.46;1707776;83;20983;-44
2022/07/24 09:40:54;;;;;;;2.20;1.92;;;;;;;31.49;48.46;100589.45;1707560;82;20963;-44
2022/07/24 09:43:32;;;;;;;4.53;2.10;;;;;;;31.60;47.47;100581.62;1674394;85;21020;-44
2022/07/24 09:46:09;;;;;;;2.55;2.10;;;;;;;31.60;47.11;100584.30;1650524;85;21271;-45
2022/07/24 09:48:56;;;;;;;3.40;1.80;;;;;;;31.47;45.80;100586.10;1673244;85;21558;-44
2022/07/24 09:51:25;;;;;;;5.17;1.75;;;;;;;31.24;47.31;100583.53;1648924;86;21031;-45
2022/07/24 09:53:59;;;;;;;3.77;2.00;;;;;;;31.32;47.22;100585.89;1648429;86;21011;-44
2022/07/24 09:56:27;;;;;;;4.33;2.27;;;;;;;31.70;45.93;100583.63;1649413;86;21006;-45
2022/07/24 09:58:59;;;;;;;3.20;1.70;;;;;;;31.86;41.01;100578.02;1648707;86;21163;-45
2022/07/24 10:01:27;;;;;;;7.47;2.17;;;;;;;32.04;41.39;100569.34;1650056;85;20998;-45
2022/07/24 10:03:56;;;;;;;2.75;1.90;;;;;;;32.59;41.62;100568.31;1648475;86;20995;-45
2022/07/24 10:06:26;;;;;;;9.38;1.77;;;;;;;33.06;41.08;100575.23;1644559;86;21049;-45
2022/07/24 10:08:54;;;;;;;10.05;2.17;;;;;;;32.79;41.70;100581.33;1653491;84;21599;-44
2022/07/24 10:11:22;;;;;;;9.58;1.75;;;;;;;32.18;40.85;100574.52;1721339;81;21501;-45
2022/07/24 10:13:50;;;;;;;8.93;1.85;;;;;;;31.84;41.88;100578.69;1711544;83;21035;-45
2022/07/24 10:16:31;;;;;;;2.22;1.80;;;;;;;31.75;41.51;100579.98;1679572;85;21552;-44
2022/07/24 10:19:04;;;;;;;3.95;1.62;;;;;;;31.98;42.45;100574.03;1686864;83;20967;-45
2022/07/24 10:21:37;;;;;;;2.47;1.70;;;;;;;32.34;42.48;100568.35;1705009;83;21521;-45
2022/07/24 10:24:35;;;;;;;2.15;1.57;;;;;;;32.60;41.37;100574.00;1706070;82;21310;-45
2022/07/24 10:27:04;;;;;;;2.08;1.98;;;;;;;32.78;39.91;100577.80;1707667;83;20944;-45
2022/07/24 10:29:35;;;;;;;5.72;1.80;;;;;;;32.76;41.50;100567.76;1656408;85;21063;-45
2022/07/24 10:32:02;;;;;;;13.08;2.10;;;;;;;32.80;42.57;100571.77;1680110;83;20977;-44
2022/07/24 10:35:04;;;;;;;4.92;1.80;;;;;;;32.81;41.85;100565.91;1671902;85;21002;-45
2022/07/24 10:37:56;;;;;;;3.40;1.80;;;;;;;32.90;42.41;100568.92;1675267;85;21169;-44
2022/07/24 10:40:41;;;;;;;5.92;1.92;;;;;;;32.92;42.54;100559.37;1654279;85;21214;-45
2022/07/24 10:43:15;;;;;;;3.12;1.60;;;;;;;32.94;42.10;100556.02;1661901;85;21105;-45
2022/07/24 10:45:51;;;;;;;5.78;1.67;;;;;;;32.86;40.88;100562.73;1703193;82;20937;-44
2022/07/24 10:48:25;;;;;;;5.92;1.98;;;;;;;32.25;42.70;100561.31;1670245;85;21173;-45
2022/07/24 10:51:05;;;;;;;8.93;1.80;;;;;;;31.76;44.15;100557.62;1717911;81;21120;-43
2022/07/24 10:53:45;;;;;;;5.67;1.60;;;;;;;31.39;44.40;100552.16;1706727;83;21663;-44
2022/07/24 10:56:26;;;;;;;16.87;1.90;;;;;;;31.25;44.22;100537.58;1705776;83;20944;-44
2022/07/24 10:59:07;;;;;;;3.60;1.80;;;;;;;31.29;45.24;100544.78;1672679;85;21083;-44
2022/07/24 11:01:49;;;;;;;5.05;1.77;;;;;;;31.63;42.98;100543.84;1644343;86;20944;-44
2022/07/24 11:04:23;;;;;;;9.38;1.42;;;;;;;31.77;44.61;100543.24;1705151;82;21085;-44
2022/07/24 11:06:58;;;;;;;1.52;1.42;;;;;;;31.87;45.14;100540.41;1671996;84;20916;-44
2022/07/24 11:09:27;;;;;;;4.42;1.50;;;;;;;32.22;43.79;100541.05;1704122;82;21486;-44
2022/07/24 11:12:03;;;;;;;7.65;1.70;;;;;;;32.52;42.77;100537.35;1664210;85;21536;-44
2022/07/24 11:14:47;;;;;;;10.68;1.90;;;;;;;32.45;42.11;100536.86;1716731;82;21008;-44
2022/07/24 11:17:39;;;;;;;2.85;1.57;;;;;;;32.42;42.77;100537.20;1702803;83;21255;-44
2022/07/24 11:20:18;;;;;;;2.33;1.62;;;;;;;32.37;42.45;100531.86;1707695;82;20933;-44
2022/07/24 11:22:54;;;;;;;6.70;2.00;;;;;;;32.19;42.85;100536.05;1665839;85;21002;-44
2022/07/24 11:25:24;;;;;;;15.23;2.00;;;;;;;32.16;42.49;100539.06;1717445;82;20960;-44
2022/07/24 11:28:12;;;;;;;5.20;1.85;;;;;;;32.15;42.75;100532.04;1671532;85;21583;-44